Aeroporto :
LOGIN :

Iscrizione | Disclaimer

   EN    FR    IT 

 










Sommario :    VFR   VFR Marginale   IFR   IFR Intensivo   IFR Molto Intensivo
Visibilità : 
Base nubi : 
>= 8 km
>= 3000ft
5 / 8 km
1000 / 3000 ft
1500m / 5 km
500 / 1000 ft
800 / 1500m
200 / 500 ft
< 800m
< 200 ft
Simboli :   Temporali  Nebbia  Neve Forte  Precipitazioni Forti  Vento > 20 kt
SIGMETs :   Varie  Temporali  Ghiacco  Turbolenza  Onda orograficha  Ceneri Vulcaniche






- Altitudine del aeroporto : 160 ft
- Codice IATA : FMO


EDDG - Münster Osnabrück Int.

ULTIMO METAR :
  • 200420Z 16004KT 110V200 0200 R25/0500N FG VV/// 01/01 Q1019 NOSIG

METARs OBSOLETI :
  • 200350Z 17003KT 140V200 0200 R25/0500N FG VV/// 02/02 Q1019 NOSIG
  • 200320Z 15004KT 0200 R25/0500N FG VV/// 02/02 Q1019 NOSIG
  • 200250Z 15004KT 090V180 0200 R25/0550N FG VV/// 02/02 Q1019 NOSIG
  • 200220Z 13003KT 080V170 0200 R25/0550N FG VV/// 02/02 Q1019 NOSIG
  • 200150Z VRB02KT 0200 R25/0550N FG VV/// 02/02 Q1020 NOSIG

TAF TAF EDDG
Valido dal 20 a 00 ore il 21 a 00 ore UTC


192300Z 2000/2024 VRB02KT 0100 FG OVC000
TEMPO 2000/2008 0600 FZFG BKN001
PROB30
TEMPO 2001/2011 3000 BR SCT001
TEMPO 2008/2011 0800 FG BKN001
BECMG 2011/2014 2000 BR BKN003
TEMPO 2012/2019 6000 SCT005
TEMPO 2020/2024 0500 FZFG BKN001



MetMap, La meteo Aeronautica in un colpo d'occhio ! - Copyright ORBIFLY Dicembre 2007 - Disclaimer

ORBIFLY MET'MAP TEAM :

Programmazione e sviluppo : Alexandra Zaïnal
Concezione e sviluppo : Baudouin d'Aumeries
Co-Programmazione e sviluppo : Marc-Olivier Méhu
Supporto tecnico e logistico : Manuel Goepfert
Aiuto per la traduzione : Arnaldo La Scala

Contatto : metmap@orbifly.com




FONTI E CREDITI :

   NOAA